Stations météo

Publicité
Embrun, France (7591): Température de l'air & dewpoint: 16.07.2018 10:00:00 - 22.07.2018 10:00:00 (CEST)Embrun, France (7591): Température de l'air 5cm: 16.07.2018 10:00:00 - 22.07.2018 10:00:00 (CEST)Embrun, France (7591): Température de l'air -20cm & Température de l'air -100cm: 16.07.2018 10:00:00 - 22.07.2018 10:00:00 (CEST)Embrun, France (7591): Vitesse du vent & gusts: 16.07.2018 10:00:00 - 22.07.2018 10:00:00 (CEST)Embrun, France (7591): Direction du vent: 16.07.2018 10:00:00 - 22.07.2018 10:00:00 (CEST)Embrun, France (7591): visibility: 16.07.2018 10:00:00 - 22.07.2018 10:00:00 (CEST)Embrun, France (7591): Ensoleillement: 16.07.2018 10:00:00 - 22.07.2018 10:00:00 (CEST)Embrun, France (7591): Quantités de précipitations: 16.07.2018 10:00:00 - 22.07.2018 10:00:00 (CEST)
Date & Time tt [°C] td [°C] tt 5cm [°C] tt -20cm [°C] tt -100cm [°C] ff [km/h] ff [knt] fx [km/h] fx [knt] dd vv [km] sd [min] rr [mm]
22.07.2018 10:00:00 19,8 10,8 18,5 21,8 18,9 7 4 19 11 S 20 60 0,0
22.07.2018 09:00:00 17,8 10,7 15,0 21,9 18,9 6 3 19 11 ENE 20 54 0,0
22.07.2018 08:00:00 14,7 10,3 12,3 22,1 18,9 14 7 23 12 NE 20 12 0,0
22.07.2018 07:00:00 12,8 10,3 10,5 22,2 18,9 8 4 17 9 NE 20 0 0,0
22.07.2018 06:00:00 12,2 10,4 9,8 22,3 18,9 10 5 15 8 NE 20 0 0,0
22.07.2018 05:00:00 12,7 10,9 10,2 22,3 18,9 2 1 7 4 NNW 20 0 0,0
22.07.2018 04:00:00 13,6 11,5 11,0 22,4 18,9 4 2 10 5 NNW 20 0 0,0
22.07.2018 03:00:00 14,2 12,1 12,3 22,5 18,9 6 4 11 6 NNE 20 0 0,0
22.07.2018 02:00:00 15,1 12,4 13,8 22,5 18,9 4 2 11 6 SSE 20 0 0,0
22.07.2018 01:00:00 15,3 12,6 14,0 22,6 18,9 5 3 11 6 ENE 20 0 0,0
22.07.2018 00:00:00 15,9 12,6 14,4 22,6 18,9 7 4 20 11 ENE 20 0 0,0
21.07.2018 23:00:00 16,6 12,7 15,3 22,6 18,9 10 6 19 10 NE 20 0 0,0
21.07.2018 22:00:00 17,6 13,1 15,4 22,5 18,9 0 0 6 4 N 20 0 0,0
21.07.2018 21:00:00 18,9 13,3 18,3 22,4 18,9 5 3 17 9 W 20 30 0,0
21.07.2018 20:00:00 20,0 11,7 19,8 22,3 18,9 7 4 36 20 SW 20 20 0,0
21.07.2018 19:00:00 21,8 11,2 21,8 22,2 18,9 19 11 40 21 SW 19 9 0,0
21.07.2018 18:00:00 25,9 12,4 28,9 22,0 18,9 18 10 36 19 SSW 20 56 0,0
21.07.2018 17:00:00 26,1 11,8 27,6 21,9 18,8 16 9 37 20 SW 20 43 0,0
21.07.2018 16:00:00 26,5 11,4 32,1 21,7 18,8 23 13 41 22 SSW 20 58 0,0
21.07.2018 15:00:00 26,4 10,9 33,0 21,7 18,8 18 10 38 21 SW 20 60 0,0
21.07.2018 14:00:00 25,6 12,1 32,8 21,6 18,8 20 11 34 18 SSW 20 60 0,0
21.07.2018 13:00:00 24,7 11,6 32,9 21,6 18,8 16 9 28 15 SSW 20 60 0,0
21.07.2018 12:00:00 22,6 11,0 31,5 21,7 18,8 7 4 15 8 SSE 20 60 0,0
21.07.2018 11:00:00 20,6 12,0 26,3 21,7 18,8 6 4 23 13 ENE 20 60 0,0
21.07.2018 10:00:00 18,7 12,4 16,1 21,9 18,8 13 7 24 13 NNE 20 54 0,0
21.07.2018 09:00:00 15,6 12,9 14,7 21,9 18,8 11 6 20 11 NE 20 23 0,0
21.07.2018 08:00:00 14,0 12,6 13,1 22,1 18,8 5 3 13 7 ENE 20 0 0,0
21.07.2018 07:00:00 13,5 12,2 12,6 22,1 18,8 6 4 19 11 ENE 20 0 0,0
21.07.2018 06:00:00 13,7 12,4 13,0 22,2 18,8 4 2 29 15 S 20 0 0,0
21.07.2018 05:00:00 14,1 12,8 13,3 22,3 18,8 17 9 25 14 N 20 0 4,1
21.07.2018 04:00:00 14,6 12,8 13,6 22,4 18,8 3 2 47 25 SE 8 0 3,0
21.07.2018 03:00:00 15,8 13,8 14,1 22,4 18,8 10 6 17 9 SSW 19 0 0,0
21.07.2018 02:00:00 15,8 13,6 14,2 22,5 18,8 4 2 18 10 WNW 20 0 0,0
21.07.2018 01:00:00 16,3 13,8 15,0 22,5 18,8 9 5 27 15 NE 20 0 0,0
21.07.2018 00:00:00 16,8 13,9 15,4 22,5 18,8 9 5 29 16 NNE 20 0 0,0
20.07.2018 23:00:00 16,8 14,3 15,9 22,5 18,8 12 6 30 16 NE 20 0 0,0
20.07.2018 22:00:00 17,0 14,1 16,0 22,4 18,8 9 5 26 14 ENE 20 0 0,0
20.07.2018 21:00:00 18,4 13,5 16,1 22,4 18,7 19 10 37 20 NNE 19 2 0,6
20.07.2018 20:00:00 21,6 13,2 22,1 22,3 18,8 11 6 24 13 NE 20 3 0,0
20.07.2018 19:00:00 23,0 12,9 24,1 22,2 18,8 13 7 21 11 NE 20 3 0,0
20.07.2018 18:00:00 24,6 11,2 25,3 22,2 18,8 9 5 24 13 NE 20 9 0,0
20.07.2018 17:00:00 25,7 13,9 22,2 22,0 18,8 5 3 24 13 S 20 21 0,0
20.07.2018 16:00:00 22,5 14,3 17,9 21,9 18,8 10 5 49 27 SSW 20 0 0,6
20.07.2018 15:00:00 30,0 8,4 34,2 21,9 18,8 13 7 37 20 SW 20 52 0,0
20.07.2018 14:00:00 29,1 7,6 35,6 21,9 18,8 13 7 31 17 WSW 20 53 0,0
20.07.2018 13:00:00 28,1 10,3 29,5 21,8 18,7 11 6 23 12 WSW 20 22 0,0
20.07.2018 12:00:00 26,1 11,1 30,3 21,9 18,7 8 4 18 10 SSW 20 43 0,0
20.07.2018 11:00:00 25,4 11,9 28,8 22,0 18,8 6 3 12 7 S 20 50 0,0
20.07.2018 10:00:00 21,9 11,9 22,5 22,1 18,8 4 2 14 7 ESE 20 43 0,0
20.07.2018 09:00:00 20,5 11,7 19,0 22,2 18,7 6 3 13 7 ENE 20 51 0,0
20.07.2018 08:00:00 17,5 11,7 13,7 22,2 18,7 8 4 12 7 ENE 20 18 0,0
20.07.2018 07:00:00 15,4 10,8 12,7 22,3 18,7 0 0 9 5 N 20 0 0,0
20.07.2018 06:00:00 15,9 10,6 12,3 22,4 18,7 3 1 6 3 NNE 20 0 0,0
20.07.2018 05:00:00 16,7 10,5 13,7 22,4 18,7 2 1 8 5 N 20 0 0,0
20.07.2018 04:00:00 17,2 10,8 14,7 22,5 18,7 3 2 10 5 NNE 20 0 0,0
20.07.2018 03:00:00 18,4 11,2 15,0 22,5 18,8 3 2 9 5 NW 20 0 0,0
20.07.2018 02:00:00 19,9 11,6 16,7 22,5 18,8 4 2 12 7 W 20 0 0,0
20.07.2018 01:00:00 21,4 10,8 18,2 22,5 18,8 7 4 12 6 SW 20 0 0,0
20.07.2018 00:00:00 22,4 10,8 19,2 22,5 18,8 6 3 10 5 SW 20 0 0,0
19.07.2018 23:00:00 23,4 11,1 20,7 22,4 18,7 3 1 10 5 ESE 20 0 0,0
19.07.2018 22:00:00 24,7 11,6 23,4 22,3 18,7 8 4 17 9 S 20 0 0,0
19.07.2018 21:00:00 26,4 11,3 25,4 22,3 18,7 10 5 29 16 SSW 20 0 0,0
19.07.2018 20:00:00 27,3 10,5 27,1 22,1 18,7 15 8 29 15 SW 20 5 0,0
19.07.2018 19:00:00 28,1 10,8 28,5 21,9 18,7 15 8 41 22 SW 20 40 0,0
19.07.2018 18:00:00 30,2 10,2 33,4 21,8 18,7 18 10 41 22 SW 20 60 0,0
19.07.2018 17:00:00 31,1 8,1 36,7 21,7 18,7 20 11 35 19 SW 20 60 0,0
19.07.2018 16:00:00 30,9 8,0 37,6 21,6 18,7 19 10 36 19 SW 20 60 0,0
19.07.2018 15:00:00 30,4 8,7 37,7 21,5 18,7 19 10 36 20 SW 20 60 0,0
19.07.2018 14:00:00 30,3 10,3 37,6 21,4 18,7 18 10 37 20 SW 20 60 0,0
19.07.2018 13:00:00 29,2 6,5 35,4 21,4 18,7 18 10 32 18 SSW 20 60 0,0
19.07.2018 12:00:00 27,5 12,7 33,0 21,5 18,7 14 8 32 17 SSW 20 60 0,0
19.07.2018 11:00:00 26,0 11,4 32,6 21,5 18,7 10 6 18 10 S 20 60 0,0
19.07.2018 10:00:00 24,3 10,9 22,6 21,6 18,7 7 4 28 15 ESE 20 60 0,0
19.07.2018 09:00:00 21,4 10,2 19,8 21,6 18,7 17 9 33 18 N 20 60 0,0
19.07.2018 08:00:00 19,3 9,8 16,2 21,7 18,7 20 11 32 17 N 20 21 0,0
19.07.2018 07:00:00 17,3 9,5 15,6 21,8 18,7 14 7 28 15 NNE 20 0 0,0
19.07.2018 06:00:00 17,3 9,5 15,1 21,9 18,7 14 8 20 11 NNE 20 0 0,0
19.07.2018 05:00:00 17,0 9,9 14,4 21,9 18,7 10 5 14 8 NE 20 0 0,0
19.07.2018 04:00:00 17,6 10,0 14,8 22,0 18,7 5 3 10 5 N 20 0 0,0
19.07.2018 03:00:00 18,7 10,0 15,9 22,0 18,7 5 3 9 5 NNW 20 0 0,0
19.07.2018 02:00:00 20,2 9,4 17,9 22,1 18,7 7 4 17 9 WNW 20 0 0,0
19.07.2018 01:00:00 21,2 8,8 18,3 22,1 18,8 5 3 15 8 WSW 20 0 0,0
19.07.2018 00:00:00 22,2 8,3 19,8 22,1 18,8 2 1 15 8 S 20 0 0,0
18.07.2018 23:00:00 22,7 8,8 20,9 22,0 18,7 7 4 13 7 SSW 20 0 0,0
18.07.2018 22:00:00 24,2 8,6 22,7 21,9 18,8 8 4 26 14 S 20 0 0,0
18.07.2018 21:00:00 26,2 8,2 25,4 21,8 18,7 16 8 32 18 WSW 20 0 0,0
18.07.2018 20:00:00 27,7 8,0 27,1 21,6 18,7 12 6 29 16 SW 20 49 0,0
18.07.2018 19:00:00 29,4 9,0 31,5 21,5 18,8 16 8 35 19 SW 20 60 0,0
18.07.2018 18:00:00 30,1 9,0 33,5 21,4 18,8 16 9 32 17 WSW 20 60 0,0
18.07.2018 17:00:00 30,4 9,8 35,8 21,2 18,8 16 9 33 18 SW 20 60 0,0
18.07.2018 16:00:00 30,1 9,6 37,0 21,1 18,8 18 10 38 21 SSW 20 60 0,0
18.07.2018 15:00:00 30,1 8,5 37,1 21,0 18,8 15 8 40 22 WSW 20 60 0,0
18.07.2018 14:00:00 29,5 10,1 36,3 20,9 18,8 17 9 32 18 SSW 20 60 0,0
18.07.2018 13:00:00 28,9 9,6 36,4 20,9 18,8 16 9 29 16 SSW 20 60 0,0
18.07.2018 12:00:00 26,4 11,7 34,1 21,0 18,8 7 4 15 8 SSW 20 60 0,0
18.07.2018 11:00:00 24,6 11,2 31,4 21,0 18,8 6 4 14 8 SSW 20 60 0,0
18.07.2018 10:00:00 22,3 10,1 20,7 21,1 18,8 10 6 26 14 ENE 20 60 0,0
18.07.2018 09:00:00 20,0 10,1 18,3 21,2 18,8 14 8 27 15 NNE 20 60 0,0
18.07.2018 08:00:00 17,4 10,0 13,8 21,3 18,8 13 7 23 12 NE 20 24 0,0
18.07.2018 07:00:00 14,9 9,3 12,4 21,4 18,8 10 5 20 11 NE 20 0 0,0
18.07.2018 06:00:00 15,2 9,5 12,7 21,5 18,8 4 2 19 10 ENE 20 0 0,0
18.07.2018 05:00:00 16,2 9,4 13,3 21,5 18,8 14 8 22 12 NNE 20 0 0,0
18.07.2018 04:00:00 16,1 10,0 13,9 21,6 18,8 10 5 16 9 NNE 20 0 0,0
18.07.2018 03:00:00 16,6 10,7 13,9 21,7 18,8 9 5 15 8 NE 20 0 0,0
18.07.2018 02:00:00 17,1 11,4 13,8 21,7 18,8 5 3 10 6 NNE 20 0 0,0
18.07.2018 01:00:00 17,6 11,4 14,7 21,7 18,8 2 1 8 4 N 20 0 0,0
18.07.2018 00:00:00 18,6 11,9 15,4 21,7 18,8 3 2 7 4 NNW 20 0 0,0
17.07.2018 23:00:00 19,8 11,8 16,7 21,6 18,8 3 2 9 5 NW 20 0 0,0
17.07.2018 22:00:00 21,8 11,8 19,1 21,6 18,8 2 1 20 11 SSW 20 0 0,0
17.07.2018 21:00:00 23,9 12,2 22,9 21,5 18,8 10 6 25 13 SSW 20 0 0,0
17.07.2018 20:00:00 26,1 11,8 25,7 21,4 18,8 12 7 31 17 SSW 20 47 0,0
17.07.2018 19:00:00 27,6 9,9 28,3 21,2 18,8 16 9 36 19 SW 20 47 0,0
17.07.2018 18:00:00 28,5 9,7 29,3 21,0 18,8 18 10 36 19 SW 20 54 0,0
17.07.2018 17:00:00 29,5 9,1 35,0 20,9 18,8 18 10 34 19 SW 20 60 0,0
17.07.2018 16:00:00 28,9 9,6 32,6 20,8 18,9 18 10 35 19 SW 20 53 0,0
17.07.2018 15:00:00 28,9 8,6 35,4 20,7 18,8 17 9 35 19 SSW 20 60 0,0
17.07.2018 14:00:00 27,9 9,2 34,2 20,6 18,8 21 12 38 21 SW 20 60 0,0
17.07.2018 13:00:00 26,8 8,2 33,1 20,6 18,8 16 8 31 17 SSW 20 60 0,0
17.07.2018 12:00:00 25,6 9,0 31,3 20,6 18,9 14 7 24 13 SSW 20 60 0,0
17.07.2018 11:00:00 22,6 11,6 27,9 20,7 18,8 10 5 22 12 SSW 20 60 0,0
17.07.2018 10:00:00 20,8 10,9 18,7 20,8 18,8 5 3 14 7 SSW 20 60 0,0
17.07.2018 09:00:00 18,6 10,4 15,8 20,9 18,9 4 2 12 6 E 20 60 0,0
17.07.2018 08:00:00 15,8 11,2 10,4 21,0 18,8 0 0 9 5 N 20 27 0,0
17.07.2018 07:00:00 12,5 9,5 10,0 21,1 18,8 3 2 7 4 N 20 0 0,0
17.07.2018 06:00:00 12,5 10,2 9,8 21,1 18,8 4 2 8 4 NNW 20 0 0,0
17.07.2018 05:00:00 13,0 10,5 10,8 21,2 18,8 5 3 13 7 NNE 20 0 0,0
17.07.2018 04:00:00 13,5 11,5 11,8 21,3 18,8 5 3 9 5 N 20 0 0,0
17.07.2018 03:00:00 14,1 11,4 12,0 21,4 18,8 4 2 11 6 S 20 0 0,0
17.07.2018 02:00:00 14,5 11,6 12,8 21,4 18,8 5 3 16 9 N 20 0 0,0
17.07.2018 01:00:00 15,4 11,4 13,1 21,5 18,9 8 4 13 7 N 20 0 0,0
17.07.2018 00:00:00 15,4 12,5 13,7 21,5 18,8 4 2 8 4 ESE 20 0 0,0
16.07.2018 23:00:00 16,7 12,4 14,1 21,5 18,8 0 0 7 4 N 20 0 0,0
16.07.2018 22:00:00 17,8 13,3 15,6 21,5 18,9 5 3 9 5 NNE 20 0 0,0
16.07.2018 21:00:00 19,5 13,2 18,4 21,5 18,8 0 0 13 7 N 20 28 0,0
16.07.2018 20:00:00 20,8 12,5 21,3 21,5 18,8 6 3 23 12 S 20 50 0,0
16.07.2018 19:00:00 21,5 12,3 23,0 21,5 18,8 9 5 19 11 SSW 20 5 0,0
16.07.2018 18:00:00 22,9 11,9 25,3 21,5 18,8 5 3 18 10 S 20 47 0,0
16.07.2018 17:00:00 22,0 12,5 24,7 21,6 18,8 11 6 24 13 NE 20 60 0,0
16.07.2018 16:00:00 19,6 14,8 16,6 21,6 18,8 9 5 36 19 ENE 20 9 0,0
16.07.2018 15:00:00 16,8 14,4 15,3 21,7 18,8 11 6 26 14 NE 20 0 0,6
16.07.2018 14:00:00 16,1 13,9 15,2 21,7 18,8 20 11 32 17 N 14 0 1,8
16.07.2018 13:00:00 16,1 13,9 15,1 21,8 18,8 5 3 33 18 S 5 0 2,4
16.07.2018 12:00:00 19,0 12,7 16,2 21,9 18,8 7 4 22 12 SSW 20 0 0,0
16.07.2018 11:00:00 19,5 10,8 20,7 22,0 18,8 13 7 33 18 NNE 20 4 0,0
16.07.2018 10:00:00 20,5 10,9 20,0 22,1 18,8 18 10 35 19 NNE 20 26 0,0

tt = Température de l'air
td = dewpoint
tt 5cm = Température de l'air 5cm
tt -20cm = Température de l'air -20cm
tt -100cm = Température de l'air -100cm
ff = Vitesse du vent
fx = gusts
dd = Direction du vent
vv = visibility
sd = Ensoleillement
rr = Quantités de précipitations

stations d'obs. à proximité